sensor_id;sensor_type;location;lat;lon;timestamp;temperature;humidity
67557;DHT22;54387;53.526;49.300;2023-11-18T00:01:31;1.10;57.40
67557;DHT22;54387;53.526;49.300;2023-11-18T00:03:59;1.10;57.80
67557;DHT22;54387;53.526;49.300;2023-11-18T00:06:26;1.00;58.80
67557;DHT22;54387;53.526;49.300;2023-11-18T00:08:52;1.00;58.00
67557;DHT22;54387;53.526;49.300;2023-11-18T00:11:18;1.00;58.10
67557;DHT22;54387;53.526;49.300;2023-11-18T00:13:44;1.10;58.40
67557;DHT22;54387;53.526;49.300;2023-11-18T00:16:11;1.10;58.30
67557;DHT22;54387;53.526;49.300;2023-11-18T00:18:44;1.10;58.60
67557;DHT22;54387;53.526;49.300;2023-11-18T00:21:10;1.10;59.00
67557;DHT22;54387;53.526;49.300;2023-11-18T00:23:37;1.20;59.00
67557;DHT22;54387;53.526;49.300;2023-11-18T00:26:04;1.20;59.10
67557;DHT22;54387;53.526;49.300;2023-11-18T00:28:33;1.10;59.20
67557;DHT22;54387;53.526;49.300;2023-11-18T00:30:59;1.10;59.40
67557;DHT22;54387;53.526;49.300;2023-11-18T00:33:25;1.10;59.60
67557;DHT22;54387;53.526;49.300;2023-11-18T00:35:51;1.10;59.70
67557;DHT22;54387;53.526;49.300;2023-11-18T00:38:17;1.10;59.90
67557;DHT22;54387;53.526;49.300;2023-11-18T00:40:43;1.10;59.90
67557;DHT22;54387;53.526;49.300;2023-11-18T00:43:10;1.10;59.80
67557;DHT22;54387;53.526;49.300;2023-11-18T00:45:36;1.00;59.90
67557;DHT22;54387;53.526;49.300;2023-11-18T00:48:02;1.00;60.00
67557;DHT22;54387;53.526;49.300;2023-11-18T00:50:31;0.90;59.70
67557;DHT22;54387;53.526;49.300;2023-11-18T00:52:59;0.80;59.50
67557;DHT22;54387;53.526;49.300;2023-11-18T00:55:25;0.80;59.70
67557;DHT22;54387;53.526;49.300;2023-11-18T00:57:51;0.70;60.00
67557;DHT22;54387;53.526;49.300;2023-11-18T01:00:17;0.80;60.00
67557;DHT22;54387;53.526;49.300;2023-11-18T01:02:48;0.80;59.90
67557;DHT22;54387;53.526;49.300;2023-11-18T01:05:15;0.70;60.00
67557;DHT22;54387;53.526;49.300;2023-11-18T01:07:42;0.60;60.10
67557;DHT22;54387;53.526;49.300;2023-11-18T01:10:09;0.60;60.20
67557;DHT22;54387;53.526;49.300;2023-11-18T01:12:40;0.60;60.20
67557;DHT22;54387;53.526;49.300;2023-11-18T01:15:07;0.50;60.10
67557;DHT22;54387;53.526;49.300;2023-11-18T01:17:36;0.50;60.00
67557;DHT22;54387;53.526;49.300;2023-11-18T01:20:03;0.40;59.80
67557;DHT22;54387;53.526;49.300;2023-11-18T01:22:35;0.30;59.00
67557;DHT22;54387;53.526;49.300;2023-11-18T01:25:01;0.20;59.10
67557;DHT22;54387;53.526;49.300;2023-11-18T01:27:28;0.10;59.10
67557;DHT22;54387;53.526;49.300;2023-11-18T01:29:54;0.10;58.50
67557;DHT22;54387;53.526;49.300;2023-11-18T01:32:20;-0.10;57.90
67557;DHT22;54387;53.526;49.300;2023-11-18T01:34:46;-0.10;58.00
67557;DHT22;54387;53.526;49.300;2023-11-18T01:37:17;-0.20;57.70
67557;DHT22;54387;53.526;49.300;2023-11-18T01:39:43;-0.30;57.60
67557;DHT22;54387;53.526;49.300;2023-11-18T01:42:09;-0.40;57.90
67557;DHT22;54387;53.526;49.300;2023-11-18T01:44:35;-0.40;58.10
67557;DHT22;54387;53.526;49.300;2023-11-18T01:47:03;-0.50;57.40
67557;DHT22;54387;53.526;49.300;2023-11-18T01:49:32;-0.60;56.10
67557;DHT22;54387;53.526;49.300;2023-11-18T01:52:03;-0.70;55.30
67557;DHT22;54387;53.526;49.300;2023-11-18T01:54:30;-0.90;55.50
67557;DHT22;54387;53.526;49.300;2023-11-18T01:56:58;-0.90;55.40
67557;DHT22;54387;53.526;49.300;2023-11-18T01:59:26;-1.00;55.40
67557;DHT22;54387;53.526;49.300;2023-11-18T02:01:55;-1.10;55.50
67557;DHT22;54387;53.526;49.300;2023-11-18T02:04:25;-1.20;55.40
67557;DHT22;54387;53.526;49.300;2023-11-18T02:06:52;-1.30;55.60
67557;DHT22;54387;53.526;49.300;2023-11-18T02:09:20;-1.30;55.70
67557;DHT22;54387;53.526;49.300;2023-11-18T02:14:39;-1.50;55.80
67557;DHT22;54387;53.526;49.300;2023-11-18T02:17:08;-1.60;55.70
67557;DHT22;54387;53.526;49.300;2023-11-18T02:19:37;-1.60;55.90
67557;DHT22;54387;53.526;49.300;2023-11-18T02:22:05;-1.70;56.10
67557;DHT22;54387;53.526;49.300;2023-11-18T02:24:34;-1.70;56.40
67557;DHT22;54387;53.526;49.300;2023-11-18T02:27:04;-1.60;56.60
67557;DHT22;54387;53.526;49.300;2023-11-18T02:29:42;-1.50;56.90
67557;DHT22;54387;53.526;49.300;2023-11-18T02:35:05;-1.30;56.80
67557;DHT22;54387;53.526;49.300;2023-11-18T02:37:47;-1.20;56.70
67557;DHT22;54387;53.526;49.300;2023-11-18T02:40:19;-1.00;56.60
67557;DHT22;54387;53.526;49.300;2023-11-18T02:42:47;-1.00;56.20
67557;DHT22;54387;53.526;49.300;2023-11-18T02:45:15;-0.90;55.70
67557;DHT22;54387;53.526;49.300;2023-11-18T02:47:46;-1.00;55.20
67557;DHT22;54387;53.526;49.300;2023-11-18T02:50:14;-1.00;55.00
67557;DHT22;54387;53.526;49.300;2023-11-18T02:52:41;-1.00;54.80
67557;DHT22;54387;53.526;49.300;2023-11-18T02:55:08;-1.00;54.70
67557;DHT22;54387;53.526;49.300;2023-11-18T02:57:35;-1.10;54.50
67557;DHT22;54387;53.526;49.300;2023-11-18T03:00:05;-1.00;54.80
67557;DHT22;54387;53.526;49.300;2023-11-18T03:02:37;-1.00;54.90
67557;DHT22;54387;53.526;49.300;2023-11-18T03:05:08;-1.00;54.40
67557;DHT22;54387;53.526;49.300;2023-11-18T03:07:44;-1.00;54.40
67557;DHT22;54387;53.526;49.300;2023-11-18T03:10:19;-1.10;54.00
67557;DHT22;54387;53.526;49.300;2023-11-18T03:12:52;-1.10;54.30
67557;DHT22;54387;53.526;49.300;2023-11-18T03:15:19;-1.10;53.90
67557;DHT22;54387;53.526;49.300;2023-11-18T03:17:46;-1.20;53.60
67557;DHT22;54387;53.526;49.300;2023-11-18T03:20:14;-1.20;53.80
67557;DHT22;54387;53.526;49.300;2023-11-18T03:22:46;-1.20;53.50
67557;DHT22;54387;53.526;49.300;2023-11-18T03:25:13;-1.30;53.50
67557;DHT22;54387;53.526;49.300;2023-11-18T03:27:40;-1.40;53.90
67557;DHT22;54387;53.526;49.300;2023-11-18T03:30:06;-1.40;54.00
67557;DHT22;54387;53.526;49.300;2023-11-18T03:32:35;-1.40;54.10
67557;DHT22;54387;53.526;49.300;2023-11-18T03:35:03;-1.40;54.10
67557;DHT22;54387;53.526;49.300;2023-11-18T03:37:30;-1.30;54.00
67557;DHT22;54387;53.526;49.300;2023-11-18T03:39:57;-1.40;54.00
67557;DHT22;54387;53.526;49.300;2023-11-18T03:42:23;-1.40;53.80
67557;DHT22;54387;53.526;49.300;2023-11-18T03:44:50;-1.40;53.80
67557;DHT22;54387;53.526;49.300;2023-11-18T03:47:17;-1.40;53.90
67557;DHT22;54387;53.526;49.300;2023-11-18T03:49:43;-1.40;53.90
67557;DHT22;54387;53.526;49.300;2023-11-18T03:52:09;-1.40;54.00
67557;DHT22;54387;53.526;49.300;2023-11-18T03:54:35;-1.40;54.20
67557;DHT22;54387;53.526;49.300;2023-11-18T03:57:01;-1.30;54.30
67557;DHT22;54387;53.526;49.300;2023-11-18T03:59:28;-1.30;54.10
67557;DHT22;54387;53.526;49.300;2023-11-18T04:01:54;-1.30;54.10
67557;DHT22;54387;53.526;49.300;2023-11-18T04:04:20;-1.20;54.20
67557;DHT22;54387;53.526;49.300;2023-11-18T04:06:46;-1.20;54.10
67557;DHT22;54387;53.526;49.300;2023-11-18T04:09:12;-1.20;54.00
67557;DHT22;54387;53.526;49.300;2023-11-18T04:11:40;-1.10;54.10
67557;DHT22;54387;53.526;49.300;2023-11-18T04:14:07;-1.10;53.80
67557;DHT22;54387;53.526;49.300;2023-11-18T04:16:33;-1.10;53.70
67557;DHT22;54387;53.526;49.300;2023-11-18T04:19:00;-1.10;54.00
67557;DHT22;54387;53.526;49.300;2023-11-18T04:21:26;-1.10;54.00
67557;DHT22;54387;53.526;49.300;2023-11-18T04:23:52;-1.00;53.70
67557;DHT22;54387;53.526;49.300;2023-11-18T04:26:18;-1.10;53.70
67557;DHT22;54387;53.526;49.300;2023-11-18T04:28:45;-1.10;53.10
67557;DHT22;54387;53.526;49.300;2023-11-18T04:31:11;-1.20;52.70
67557;DHT22;54387;53.526;49.300;2023-11-18T04:33:37;-1.20;53.10
67557;DHT22;54387;53.526;49.300;2023-11-18T04:36:07;-1.20;52.60
67557;DHT22;54387;53.526;49.300;2023-11-18T04:38:36;-1.20;51.90
67557;DHT22;54387;53.526;49.300;2023-11-18T04:41:02;-1.40;52.50
67557;DHT22;54387;53.526;49.300;2023-11-18T04:43:29;-1.40;51.60
67557;DHT22;54387;53.526;49.300;2023-11-18T04:45:56;-1.50;51.50
67557;DHT22;54387;53.526;49.300;2023-11-18T04:48:22;-1.50;51.10
67557;DHT22;54387;53.526;49.300;2023-11-18T04:50:49;-1.60;51.40
67557;DHT22;54387;53.526;49.300;2023-11-18T04:53:15;-1.70;51.30
67557;DHT22;54387;53.526;49.300;2023-11-18T04:55:41;-1.70;51.40
67557;DHT22;54387;53.526;49.300;2023-11-18T04:58:07;-1.70;51.50
67557;DHT22;54387;53.526;49.300;2023-11-18T05:00:38;-1.70;51.60
67557;DHT22;54387;53.526;49.300;2023-11-18T05:03:05;-1.70;51.60
67557;DHT22;54387;53.526;49.300;2023-11-18T05:05:36;-1.70;51.80
67557;DHT22;54387;53.526;49.300;2023-11-18T05:08:07;-1.60;51.70
67557;DHT22;54387;53.526;49.300;2023-11-18T05:10:34;-1.60;51.40
67557;DHT22;54387;53.526;49.300;2023-11-18T05:13:02;-1.60;51.50
67557;DHT22;54387;53.526;49.300;2023-11-18T05:15:28;-1.60;51.70
67557;DHT22;54387;53.526;49.300;2023-11-18T05:17:56;-1.60;51.90
67557;DHT22;54387;53.526;49.300;2023-11-18T05:20:22;-1.50;52.00
67557;DHT22;54387;53.526;49.300;2023-11-18T05:22:49;-1.50;51.90
67557;DHT22;54387;53.526;49.300;2023-11-18T05:25:15;-1.40;52.10
67557;DHT22;54387;53.526;49.300;2023-11-18T05:27:41;-1.30;52.50
67557;DHT22;54387;53.526;49.300;2023-11-18T05:30:08;-1.20;52.80
67557;DHT22;54387;53.526;49.300;2023-11-18T05:32:35;-1.10;52.70
67557;DHT22;54387;53.526;49.300;2023-11-18T05:35:03;-1.00;52.40
67557;DHT22;54387;53.526;49.300;2023-11-18T05:37:31;-1.00;52.20
67557;DHT22;54387;53.526;49.300;2023-11-18T05:40:05;-1.00;51.40
67557;DHT22;54387;53.526;49.300;2023-11-18T05:42:35;-1.00;51.00
67557;DHT22;54387;53.526;49.300;2023-11-18T05:45:06;-1.10;50.30
67557;DHT22;54387;53.526;49.300;2023-11-18T05:47:34;-1.10;50.20
67557;DHT22;54387;53.526;49.300;2023-11-18T05:50:01;-1.20;50.50
67557;DHT22;54387;53.526;49.300;2023-11-18T05:52:27;-1.20;50.20
67557;DHT22;54387;53.526;49.300;2023-11-18T05:54:53;-1.20;50.10
67557;DHT22;54387;53.526;49.300;2023-11-18T05:57:19;-1.20;50.50
67557;DHT22;54387;53.526;49.300;2023-11-18T05:59:46;-1.10;50.50
67557;DHT22;54387;53.526;49.300;2023-11-18T06:02:14;-1.00;50.10
67557;DHT22;54387;53.526;49.300;2023-11-18T06:04:46;-0.90;49.50
67557;DHT22;54387;53.526;49.300;2023-11-18T06:07:13;-0.90;49.80
67557;DHT22;54387;53.526;49.300;2023-11-18T06:09:43;-0.80;49.90
67557;DHT22;54387;53.526;49.300;2023-11-18T06:12:10;-0.70;49.50
67557;DHT22;54387;53.526;49.300;2023-11-18T06:14:40;-0.70;48.90
67557;DHT22;54387;53.526;49.300;2023-11-18T06:17:07;-0.60;49.20
67557;DHT22;54387;53.526;49.300;2023-11-18T06:19:34;-0.50;49.10
67557;DHT22;54387;53.526;49.300;2023-11-18T06:22:00;-0.50;48.90
67557;DHT22;54387;53.526;49.300;2023-11-18T06:24:27;-0.50;49.10
67557;DHT22;54387;53.526;49.300;2023-11-18T06:26:54;-0.40;48.60
67557;DHT22;54387;53.526;49.300;2023-11-18T06:29:20;-0.40;48.50
67557;DHT22;54387;53.526;49.300;2023-11-18T06:31:47;-0.40;48.60
67557;DHT22;54387;53.526;49.300;2023-11-18T06:34:14;-0.30;48.60
67557;DHT22;54387;53.526;49.300;2023-11-18T06:36:40;-0.30;49.00
67557;DHT22;54387;53.526;49.300;2023-11-18T06:39:07;-0.20;48.20
67557;DHT22;54387;53.526;49.300;2023-11-18T06:41:34;-0.20;47.90
67557;DHT22;54387;53.526;49.300;2023-11-18T06:44:00;-0.30;47.80
67557;DHT22;54387;53.526;49.300;2023-11-18T06:46:35;-0.30;47.40
67557;DHT22;54387;53.526;49.300;2023-11-18T06:49:03;-0.40;47.70
67557;DHT22;54387;53.526;49.300;2023-11-18T06:51:32;-0.40;48.20
67557;DHT22;54387;53.526;49.300;2023-11-18T06:54:01;-0.40;48.20
67557;DHT22;54387;53.526;49.300;2023-11-18T06:56:42;-0.40;48.20
67557;DHT22;54387;53.526;49.300;2023-11-18T06:59:12;-0.30;48.40
67557;DHT22;54387;53.526;49.300;2023-11-18T07:01:39;-0.30;48.00
67557;DHT22;54387;53.526;49.300;2023-11-18T07:04:09;-0.30;47.80
67557;DHT22;54387;53.526;49.300;2023-11-18T07:06:36;-0.10;48.20
67557;DHT22;54387;53.526;49.300;2023-11-18T07:09:08;0.00;47.90
67557;DHT22;54387;53.526;49.300;2023-11-18T07:11:44;0.00;47.30
67557;DHT22;54387;53.526;49.300;2023-11-18T07:14:11;0.00;47.50
67557;DHT22;54387;53.526;49.300;2023-11-18T07:16:41;0.00;47.50
67557;DHT22;54387;53.526;49.300;2023-11-18T07:19:09;0.00;48.00
67557;DHT22;54387;53.526;49.300;2023-11-18T07:21:46;0.00;47.90
67557;DHT22;54387;53.526;49.300;2023-11-18T07:24:12;-0.10;47.90
67557;DHT22;54387;53.526;49.300;2023-11-18T07:26:39;0.00;47.90
67557;DHT22;54387;53.526;49.300;2023-11-18T07:29:05;0.00;48.20
67557;DHT22;54387;53.526;49.300;2023-11-18T07:31:33;0.10;48.30
67557;DHT22;54387;53.526;49.300;2023-11-18T07:34:05;0.10;47.90
67557;DHT22;54387;53.526;49.300;2023-11-18T07:36:32;0.00;47.30
67557;DHT22;54387;53.526;49.300;2023-11-18T07:38:59;0.00;47.50
67557;DHT22;54387;53.526;49.300;2023-11-18T07:41:31;0.00;47.80
67557;DHT22;54387;53.526;49.300;2023-11-18T07:43:57;0.10;48.70
67557;DHT22;54387;53.526;49.300;2023-11-18T07:46:27;0.10;47.30
67557;DHT22;54387;53.526;49.300;2023-11-18T07:48:56;0.00;46.80
67557;DHT22;54387;53.526;49.300;2023-11-18T07:51:22;-0.10;47.10
67557;DHT22;54387;53.526;49.300;2023-11-18T07:53:49;-0.10;47.10
67557;DHT22;54387;53.526;49.300;2023-11-18T07:56:16;-0.10;47.40
67557;DHT22;54387;53.526;49.300;2023-11-18T07:58:45;0.00;47.40
67557;DHT22;54387;53.526;49.300;2023-11-18T08:01:13;0.10;47.50
67557;DHT22;54387;53.526;49.300;2023-11-18T08:03:42;0.20;47.10
67557;DHT22;54387;53.526;49.300;2023-11-18T08:06:08;0.20;47.10
67557;DHT22;54387;53.526;49.300;2023-11-18T08:08:36;0.30;46.60
67557;DHT22;54387;53.526;49.300;2023-11-18T08:11:11;0.20;45.70
67557;DHT22;54387;53.526;49.300;2023-11-18T08:13:38;0.10;45.80
67557;DHT22;54387;53.526;49.300;2023-11-18T08:16:05;0.00;46.20
67557;DHT22;54387;53.526;49.300;2023-11-18T08:18:33;0.00;46.20
67557;DHT22;54387;53.526;49.300;2023-11-18T08:21:00;0.00;46.50
67557;DHT22;54387;53.526;49.300;2023-11-18T08:23:27;0.10;46.80
67557;DHT22;54387;53.526;49.300;2023-11-18T08:25:57;0.10;46.70
67557;DHT22;54387;53.526;49.300;2023-11-18T08:28:24;0.20;46.70
67557;DHT22;54387;53.526;49.300;2023-11-18T08:30:51;0.20;46.30
67557;DHT22;54387;53.526;49.300;2023-11-18T08:33:21;0.20;46.40
67557;DHT22;54387;53.526;49.300;2023-11-18T08:35:50;0.20;46.50
67557;DHT22;54387;53.526;49.300;2023-11-18T08:38:16;0.10;46.00
67557;DHT22;54387;53.526;49.300;2023-11-18T08:40:43;-0.10;45.80
67557;DHT22;54387;53.526;49.300;2023-11-18T08:43:10;-0.20;46.50
67557;DHT22;54387;53.526;49.300;2023-11-18T08:45:37;-0.30;46.50
67557;DHT22;54387;53.526;49.300;2023-11-18T08:48:04;-0.30;46.90
67557;DHT22;54387;53.526;49.300;2023-11-18T08:50:34;-0.40;47.10
67557;DHT22;54387;53.526;49.300;2023-11-18T08:53:01;-0.40;47.10
67557;DHT22;54387;53.526;49.300;2023-11-18T08:55:31;-0.40;47.30
67557;DHT22;54387;53.526;49.300;2023-11-18T08:58:09;-0.40;47.30
67557;DHT22;54387;53.526;49.300;2023-11-18T09:00:52;-0.40;47.10
67557;DHT22;54387;53.526;49.300;2023-11-18T09:03:26;-0.30;47.10
67557;DHT22;54387;53.526;49.300;2023-11-18T09:06:05;-0.40;46.70
67557;DHT22;54387;53.526;49.300;2023-11-18T09:08:36;-0.30;46.80
67557;DHT22;54387;53.526;49.300;2023-11-18T09:11:06;-0.20;46.80
67557;DHT22;54387;53.526;49.300;2023-11-18T09:13:33;-0.20;46.80
67557;DHT22;54387;53.526;49.300;2023-11-18T09:16:05;-0.10;47.10
67557;DHT22;54387;53.526;49.300;2023-11-18T09:18:36;0.10;47.20
67557;DHT22;54387;53.526;49.300;2023-11-18T09:21:02;0.10;46.50
67557;DHT22;54387;53.526;49.300;2023-11-18T09:23:31;0.10;46.60
67557;DHT22;54387;53.526;49.300;2023-11-18T09:26:01;0.20;46.80
67557;DHT22;54387;53.526;49.300;2023-11-18T09:28:27;0.30;46.50
67557;DHT22;54387;53.526;49.300;2023-11-18T09:30:57;0.20;45.90
67557;DHT22;54387;53.526;49.300;2023-11-18T09:33:25;0.10;45.80
67557;DHT22;54387;53.526;49.300;2023-11-18T09:35:55;0.10;46.00
67557;DHT22;54387;53.526;49.300;2023-11-18T09:38:26;0.00;45.60
67557;DHT22;54387;53.526;49.300;2023-11-18T09:40:54;-0.10;45.70
67557;DHT22;54387;53.526;49.300;2023-11-18T09:43:20;-0.20;46.00
67557;DHT22;54387;53.526;49.300;2023-11-18T09:45:56;-0.20;46.20
67557;DHT22;54387;53.526;49.300;2023-11-18T09:48:23;-0.20;45.90
67557;DHT22;54387;53.526;49.300;2023-11-18T09:50:53;-0.20;45.40
67557;DHT22;54387;53.526;49.300;2023-11-18T09:53:24;-0.30;45.40
67557;DHT22;54387;53.526;49.300;2023-11-18T09:56:07;-0.50;45.40
67557;DHT22;54387;53.526;49.300;2023-11-18T09:59:05;-0.70;45.70
67557;DHT22;54387;53.526;49.300;2023-11-18T10:01:38;-0.80;46.50
67557;DHT22;54387;53.526;49.300;2023-11-18T10:04:07;-0.80;46.90
67557;DHT22;54387;53.526;49.300;2023-11-18T10:06:35;-0.80;47.30
67557;DHT22;54387;53.526;49.300;2023-11-18T10:09:06;-0.80;47.60
67557;DHT22;54387;53.526;49.300;2023-11-18T10:11:43;-0.70;47.70
67557;DHT22;54387;53.526;49.300;2023-11-18T10:14:16;-0.50;47.90
67557;DHT22;54387;53.526;49.300;2023-11-18T10:16:45;-0.40;47.40
67557;DHT22;54387;53.526;49.300;2023-11-18T10:19:13;-0.40;47.00
67557;DHT22;54387;53.526;49.300;2023-11-18T10:21:40;-0.40;47.10
67557;DHT22;54387;53.526;49.300;2023-11-18T10:24:08;-0.30;47.30
67557;DHT22;54387;53.526;49.300;2023-11-18T10:26:55;-0.20;47.30
67557;DHT22;54387;53.526;49.300;2023-11-18T10:29:25;-0.20;47.00
67557;DHT22;54387;53.526;49.300;2023-11-18T10:32:08;-0.40;46.60
67557;DHT22;54387;53.526;49.300;2023-11-18T10:34:36;-0.60;46.90
67557;DHT22;54387;53.526;49.300;2023-11-18T10:37:03;-0.60;47.40
67557;DHT22;54387;53.526;49.300;2023-11-18T10:39:31;-0.50;47.90
67557;DHT22;54387;53.526;49.300;2023-11-18T10:42:02;-0.50;47.90
67557;DHT22;54387;53.526;49.300;2023-11-18T10:44:29;-0.40;47.70
67557;DHT22;54387;53.526;49.300;2023-11-18T10:46:56;-0.40;47.80
67557;DHT22;54387;53.526;49.300;2023-11-18T10:49:29;-0.30;47.70
67557;DHT22;54387;53.526;49.300;2023-11-18T10:52:02;-0.40;47.80
67557;DHT22;54387;53.526;49.300;2023-11-18T10:54:33;-0.30;47.60
67557;DHT22;54387;53.526;49.300;2023-11-18T10:57:01;-0.50;47.30
67557;DHT22;54387;53.526;49.300;2023-11-18T10:59:34;-0.60;47.50
67557;DHT22;54387;53.526;49.300;2023-11-18T11:02:18;-0.70;47.80
67557;DHT22;54387;53.526;49.300;2023-11-18T11:04:46;-0.90;48.30
67557;DHT22;54387;53.526;49.300;2023-11-18T11:07:12;-1.00;48.80
67557;DHT22;54387;53.526;49.300;2023-11-18T11:09:39;-1.00;49.20
67557;DHT22;54387;53.526;49.300;2023-11-18T11:12:10;-1.00;49.50
67557;DHT22;54387;53.526;49.300;2023-11-18T11:14:50;-0.90;49.70
67557;DHT22;54387;53.526;49.300;2023-11-18T11:17:20;-0.80;49.50
67557;DHT22;54387;53.526;49.300;2023-11-18T11:20:05;-0.90;48.90
67557;DHT22;54387;53.526;49.300;2023-11-18T11:26:06;-1.20;49.00
67557;DHT22;54387;53.526;49.300;2023-11-18T11:31:52;-1.20;49.40
67557;DHT22;54387;53.526;49.300;2023-11-18T11:34:20;-1.10;49.50
67557;DHT22;54387;53.526;49.300;2023-11-18T11:36:51;-1.20;49.50
67557;DHT22;54387;53.526;49.300;2023-11-18T11:39:20;-1.20;49.60
67557;DHT22;54387;53.526;49.300;2023-11-18T11:41:56;-1.20;49.50
67557;DHT22;54387;53.526;49.300;2023-11-18T11:44:25;-1.20;49.50
67557;DHT22;54387;53.526;49.300;2023-11-18T11:46:58;-1.20;49.50
67557;DHT22;54387;53.526;49.300;2023-11-18T11:49:29;-1.20;49.60
67557;DHT22;54387;53.526;49.300;2023-11-18T11:52:09;-1.20;49.30
67557;DHT22;54387;53.526;49.300;2023-11-18T11:55:05;-1.20;49.60
67557;DHT22;54387;53.526;49.300;2023-11-18T11:57:39;-1.20;49.80
67557;DHT22;54387;53.526;49.300;2023-11-18T12:00:12;-1.20;49.80
67557;DHT22;54387;53.526;49.300;2023-11-18T12:02:52;-1.20;49.30
67557;DHT22;54387;53.526;49.300;2023-11-18T12:05:25;-1.20;49.40
67557;DHT22;54387;53.526;49.300;2023-11-18T12:07:52;-1.30;49.50
67557;DHT22;54387;53.526;49.300;2023-11-18T12:10:26;-1.40;49.70
67557;DHT22;54387;53.526;49.300;2023-11-18T12:13:10;-1.40;50.00
67557;DHT22;54387;53.526;49.300;2023-11-18T12:15:54;-1.40;50.20
67557;DHT22;54387;53.526;49.300;2023-11-18T12:18:23;-1.40;50.10
67557;DHT22;54387;53.526;49.300;2023-11-18T12:20:50;-1.50;50.00
67557;DHT22;54387;53.526;49.300;2023-11-18T12:23:30;-1.60;50.20
67557;DHT22;54387;53.526;49.300;2023-11-18T12:26:00;-1.60;50.60
67557;DHT22;54387;53.526;49.300;2023-11-18T12:28:33;-1.70;50.80
67557;DHT22;54387;53.526;49.300;2023-11-18T12:31:41;-1.80;51.10
67557;DHT22;54387;53.526;49.300;2023-11-18T12:34:08;-1.80;51.20
67557;DHT22;54387;53.526;49.300;2023-11-18T12:43:03;-1.80;51.60
67557;DHT22;54387;53.526;49.300;2023-11-18T12:46:51;-1.80;51.60
67557;DHT22;54387;53.526;49.300;2023-11-18T12:48:49;-1.70;51.60
67557;DHT22;54387;53.526;49.300;2023-11-18T12:51:17;-1.70;51.70
67557;DHT22;54387;53.526;49.300;2023-11-18T12:53:50;-1.80;52.00
67557;DHT22;54387;53.526;49.300;2023-11-18T12:56:19;-1.70;52.20
67557;DHT22;54387;53.526;49.300;2023-11-18T12:58:46;-1.70;52.50
67557;DHT22;54387;53.526;49.300;2023-11-18T13:01:16;-1.80;52.10
67557;DHT22;54387;53.526;49.300;2023-11-18T13:03:45;-1.80;52.50
67557;DHT22;54387;53.526;49.300;2023-11-18T13:06:11;-1.90;52.60
67557;DHT22;54387;53.526;49.300;2023-11-18T13:08:39;-1.90;52.70
67557;DHT22;54387;53.526;49.300;2023-11-18T13:11:06;-1.80;53.00
67557;DHT22;54387;53.526;49.300;2023-11-18T13:13:39;-1.80;53.40
67557;DHT22;54387;53.526;49.300;2023-11-18T13:16:08;-1.70;53.00
67557;DHT22;54387;53.526;49.300;2023-11-18T13:18:43;-1.60;52.80
67557;DHT22;54387;53.526;49.300;2023-11-18T13:21:14;-1.60;52.60
67557;DHT22;54387;53.526;49.300;2023-11-18T13:23:45;-1.60;52.30
67557;DHT22;54387;53.526;49.300;2023-11-18T13:26:15;-1.70;52.30
67557;DHT22;54387;53.526;49.300;2023-11-18T13:28:43;-1.70;52.30
67557;DHT22;54387;53.526;49.300;2023-11-18T13:31:10;-1.70;52.20
67557;DHT22;54387;53.526;49.300;2023-11-18T13:33:41;-1.80;52.30
67557;DHT22;54387;53.526;49.300;2023-11-18T13:36:09;-1.80;52.40
67557;DHT22;54387;53.526;49.300;2023-11-18T13:38:39;-1.90;52.30
67557;DHT22;54387;53.526;49.300;2023-11-18T13:41:08;-2.00;52.00
67557;DHT22;54387;53.526;49.300;2023-11-18T13:43:45;-2.10;52.10
67557;DHT22;54387;53.526;49.300;2023-11-18T13:46:14;-2.20;52.20
67557;DHT22;54387;53.526;49.300;2023-11-18T13:48:41;-2.40;52.40
67557;DHT22;54387;53.526;49.300;2023-11-18T13:51:09;-2.50;52.70
67557;DHT22;54387;53.526;49.300;2023-11-18T13:53:42;-2.60;52.70
67557;DHT22;54387;53.526;49.300;2023-11-18T13:56:13;-2.70;53.00
67557;DHT22;54387;53.526;49.300;2023-11-18T13:58:43;-2.80;53.20
67557;DHT22;54387;53.526;49.300;2023-11-18T14:01:11;-2.70;53.60
67557;DHT22;54387;53.526;49.300;2023-11-18T14:03:40;-2.80;53.80
67557;DHT22;54387;53.526;49.300;2023-11-18T14:06:11;-2.80;53.90
67557;DHT22;54387;53.526;49.300;2023-11-18T14:08:38;-2.70;54.20
67557;DHT22;54387;53.526;49.300;2023-11-18T14:11:07;-2.60;54.20
67557;DHT22;54387;53.526;49.300;2023-11-18T14:13:35;-2.60;54.10
67557;DHT22;54387;53.526;49.300;2023-11-18T14:16:03;-2.50;54.10
67557;DHT22;54387;53.526;49.300;2023-11-18T14:18:30;-2.50;53.90
67557;DHT22;54387;53.526;49.300;2023-11-18T14:20:56;-2.50;53.90
67557;DHT22;54387;53.526;49.300;2023-11-18T14:23:23;-2.50;53.70
67557;DHT22;54387;53.526;49.300;2023-11-18T14:25:49;-2.60;53.60
67557;DHT22;54387;53.526;49.300;2023-11-18T14:28:15;-2.60;53.70
67557;DHT22;54387;53.526;49.300;2023-11-18T14:30:42;-2.60;53.80
67557;DHT22;54387;53.526;49.300;2023-11-18T14:33:08;-2.60;53.80
67557;DHT22;54387;53.526;49.300;2023-11-18T14:35:34;-2.60;53.90
67557;DHT22;54387;53.526;49.300;2023-11-18T14:38:01;-2.60;54.10
67557;DHT22;54387;53.526;49.300;2023-11-18T14:40:28;-2.60;54.20
67557;DHT22;54387;53.526;49.300;2023-11-18T14:42:55;-2.60;54.20
67557;DHT22;54387;53.526;49.300;2023-11-18T14:45:21;-2.60;54.00
67557;DHT22;54387;53.526;49.300;2023-11-18T14:47:48;-2.70;54.00
67557;DHT22;54387;53.526;49.300;2023-11-18T14:50:18;-2.80;54.10
67557;DHT22;54387;53.526;49.300;2023-11-18T14:52:49;-2.90;54.30
67557;DHT22;54387;53.526;49.300;2023-11-18T14:55:18;-3.00;54.50
67557;DHT22;54387;53.526;49.300;2023-11-18T14:57:45;-3.10;54.70
67557;DHT22;54387;53.526;49.300;2023-11-18T15:00:13;-3.20;54.80
67557;DHT22;54387;53.526;49.300;2023-11-18T15:02:46;-3.30;54.90
67557;DHT22;54387;53.526;49.300;2023-11-18T15:05:14;-3.30;55.20
67557;DHT22;54387;53.526;49.300;2023-11-18T15:07:48;-3.30;55.40
67557;DHT22;54387;53.526;49.300;2023-11-18T15:10:22;-3.40;55.40
67557;DHT22;54387;53.526;49.300;2023-11-18T15:12:50;-3.40;55.40
67557;DHT22;54387;53.526;49.300;2023-11-18T15:15:31;-3.40;55.60
67557;DHT22;54387;53.526;49.300;2023-11-18T15:18:02;-3.50;55.80
67557;DHT22;54387;53.526;49.300;2023-11-18T15:20:40;-3.40;56.20
67557;DHT22;54387;53.526;49.300;2023-11-18T15:23:12;-3.40;56.20
67557;DHT22;54387;53.526;49.300;2023-11-18T15:25:39;-3.40;56.20
67557;DHT22;54387;53.526;49.300;2023-11-18T15:28:06;-3.40;56.20
67557;DHT22;54387;53.526;49.300;2023-11-18T15:30:40;-3.50;56.50
67557;DHT22;54387;53.526;49.300;2023-11-18T15:33:07;-3.50;56.60
67557;DHT22;54387;53.526;49.300;2023-11-18T15:35:36;-3.50;56.80
67557;DHT22;54387;53.526;49.300;2023-11-18T15:38:13;-3.50;57.10
67557;DHT22;54387;53.526;49.300;2023-11-18T15:40:42;-3.50;57.20
67557;DHT22;54387;53.526;49.300;2023-11-18T15:43:09;-3.50;57.20
67557;DHT22;54387;53.526;49.300;2023-11-18T15:45:38;-3.50;57.10
67557;DHT22;54387;53.526;49.300;2023-11-18T15:48:05;-3.50;57.30
67557;DHT22;54387;53.526;49.300;2023-11-18T15:50:33;-3.50;57.40
67557;DHT22;54387;53.526;49.300;2023-11-18T15:53:04;-3.60;57.40